Time;durP1;ratioP1;P1;durP2;ratioP2;P2;SDS_P1;SDS_P2;PMS_P1;PMS_P2;Temp;Humidity;BMP_temperature;BMP_pressure;BME280_temperature;BME280_humidity;BME280_pressure;Samples;Min_cycle;Max_cycle;Signal;HPM_P1;HPM_P2
2023/08/06 00:00:38;;;;;;;26.60;17.17;;;;;;;;;;5041358;28;20041;-78
2023/08/06 00:03:04;;;;;;;25.42;16.45;;;;;;;;;;5039302;28;20141;-75
2023/08/06 00:05:30;;;;;;;25.55;16.38;;;;;;;;;;5032049;28;20081;-75
2023/08/06 00:07:56;;;;;;;24.55;16.48;;;;;;;;;;5042097;28;20045;-75
2023/08/06 00:10:22;;;;;;;22.17;15.88;;;;;;;;;;5019067;28;20079;-79
2023/08/06 00:12:48;;;;;;;27.30;17.23;;;;;;;;;;5044499;28;20041;-78
2023/08/06 00:15:14;;;;;;;21.67;15.18;;;;;;;;;;5031781;28;20144;-75
2023/08/06 00:17:40;;;;;;;28.70;17.75;;;;;;;;;;5053111;28;20045;-75
2023/08/06 00:20:07;;;;;;;24.95;17.02;;;;;;;;;;5049359;28;20406;-81
2023/08/06 00:22:38;;;;;;;25.55;17.35;;;;;;;;;;5046435;28;20037;-78
2023/08/06 00:25:04;;;;;;;26.38;17.42;;;;;;;;;;5035473;28;20042;-79
2023/08/06 00:27:32;;;;;;;24.98;16.90;;;;;;;;;;5053187;28;20483;-80
2023/08/06 00:29:58;;;;;;;22.67;16.52;;;;;;;;;;5051657;28;20041;-80
2023/08/06 00:32:24;;;;;;;23.55;16.55;;;;;;;;;;5034444;28;20546;-80
2023/08/06 00:34:50;;;;;;;24.63;16.40;;;;;;;;;;5030238;28;20091;-79
2023/08/06 00:37:20;;;;;;;21.30;14.50;;;;;;;;;;5049657;28;20103;-81
2023/08/06 00:39:46;;;;;;;21.10;14.65;;;;;;;;;;5030260;28;20041;-75
2023/08/06 00:42:12;;;;;;;23.00;15.30;;;;;;;;;;5036196;28;20067;-79
2023/08/06 00:44:38;;;;;;;22.27;15.82;;;;;;;;;;5036642;28;20037;-80
2023/08/06 00:47:05;;;;;;;23.98;15.73;;;;;;;;;;5050981;28;20049;-81
2023/08/06 00:49:31;;;;;;;21.60;14.73;;;;;;;;;;5017671;28;20045;-80
2023/08/06 00:51:58;;;;;;;19.45;14.75;;;;;;;;;;5043992;28;20473;-81
2023/08/06 00:54:24;;;;;;;22.30;15.32;;;;;;;;;;5046718;28;20041;-80
2023/08/06 00:56:50;;;;;;;25.85;16.15;;;;;;;;;;5027751;28;20060;-79
2023/08/06 00:59:16;;;;;;;25.20;15.93;;;;;;;;;;5035738;28;20098;-81
2023/08/06 01:01:42;;;;;;;25.65;16.02;;;;;;;;;;5041881;28;20068;-78
2023/08/06 01:04:09;;;;;;;24.73;15.70;;;;;;;;;;5028797;28;20052;-80
2023/08/06 01:06:54;;;;;;;19.77;13.38;;;;;;;;;;5025703;28;20407;-76
2023/08/06 01:09:29;;;;;;;22.80;15.98;;;;;;;;;;5033121;28;20029;-75
2023/08/06 01:12:00;;;;;;;24.48;15.90;;;;;;;;;;5017863;28;20044;-76
2023/08/06 01:14:33;;;;;;;19.85;13.52;;;;;;;;;;5044653;28;20052;-75
2023/08/06 01:16:59;;;;;;;19.48;14.50;;;;;;;;;;5042191;28;20138;-76
2023/08/06 01:19:25;;;;;;;22.30;14.70;;;;;;;;;;5046207;28;20068;-76
2023/08/06 01:21:51;;;;;;;20.88;14.30;;;;;;;;;;4999561;28;20055;-76
2023/08/06 01:24:17;;;;;;;20.58;14.07;;;;;;;;;;5032782;28;20585;-81
2023/08/06 01:26:46;;;;;;;22.60;15.02;;;;;;;;;;5039350;28;20390;-76
2023/08/06 01:29:12;;;;;;;22.00;13.98;;;;;;;;;;5048007;28;20139;-78
2023/08/06 01:31:39;;;;;;;20.83;13.75;;;;;;;;;;5026904;28;20040;-76
2023/08/06 01:34:06;;;;;;;22.02;14.02;;;;;;;;;;5048300;28;20166;-80
2023/08/06 01:36:33;;;;;;;22.52;14.02;;;;;;;;;;5039100;28;20036;-75
2023/08/06 01:38:59;;;;;;;23.30;14.07;;;;;;;;;;5041445;28;20041;-80
2023/08/06 01:41:25;;;;;;;22.55;13.48;;;;;;;;;;5040606;28;20131;-75
2023/08/06 01:43:51;;;;;;;21.40;13.63;;;;;;;;;;5015133;28;20045;-80
2023/08/06 01:46:17;;;;;;;21.65;13.85;;;;;;;;;;5032635;28;20112;-76
2023/08/06 01:48:43;;;;;;;22.15;13.98;;;;;;;;;;5030784;28;20095;-76
2023/08/06 01:51:09;;;;;;;21.15;14.15;;;;;;;;;;5015264;28;20037;-81
2023/08/06 01:53:35;;;;;;;19.00;13.18;;;;;;;;;;5045045;28;20129;-76
2023/08/06 01:56:02;;;;;;;20.10;13.60;;;;;;;;;;5046322;28;20041;-75
2023/08/06 01:58:28;;;;;;;19.83;13.25;;;;;;;;;;5040669;28;20120;-83
2023/08/06 02:00:54;;;;;;;21.20;13.88;;;;;;;;;;5034644;28;20052;-83
2023/08/06 02:03:20;;;;;;;21.30;13.40;;;;;;;;;;5006941;28;20125;-83
2023/08/06 02:05:46;;;;;;;16.83;12.55;;;;;;;;;;5001822;28;20038;-76
2023/08/06 02:08:12;;;;;;;21.33;13.73;;;;;;;;;;4996735;28;20068;-80
2023/08/06 02:10:38;;;;;;;21.50;13.95;;;;;;;;;;5012360;28;20116;-82
2023/08/06 02:13:04;;;;;;;20.50;13.73;;;;;;;;;;5009693;28;20045;-76
2023/08/06 02:15:30;;;;;;;18.10;12.90;;;;;;;;;;5011851;28;20491;-76
2023/08/06 02:17:56;;;;;;;19.23;12.75;;;;;;;;;;4980050;28;20124;-76
2023/08/06 02:20:22;;;;;;;20.35;12.73;;;;;;;;;;5012279;28;20052;-81
2023/08/06 02:22:48;;;;;;;22.80;13.82;;;;;;;;;;4981513;28;20048;-81
2023/08/06 02:25:15;;;;;;;20.75;13.07;;;;;;;;;;5005193;28;20492;-81
2023/08/06 02:27:41;;;;;;;19.90;13.02;;;;;;;;;;5009334;28;20454;-79
2023/08/06 02:30:07;;;;;;;20.00;12.90;;;;;;;;;;5008424;28;20038;-81
2023/08/06 02:32:35;;;;;;;18.90;12.95;;;;;;;;;;5011925;28;20046;-81
2023/08/06 02:35:02;;;;;;;21.40;13.40;;;;;;;;;;4995274;28;20034;-81
2023/08/06 02:37:28;;;;;;;19.58;13.13;;;;;;;;;;5030649;28;20030;-80
2023/08/06 02:39:54;;;;;;;18.98;12.98;;;;;;;;;;4988721;28;20072;-83
2023/08/06 02:42:20;;;;;;;21.40;13.55;;;;;;;;;;4994692;28;20408;-82
2023/08/06 02:44:46;;;;;;;22.17;14.38;;;;;;;;;;5013810;28;20049;-81
2023/08/06 02:47:12;;;;;;;23.00;14.10;;;;;;;;;;4997708;28;20038;-83
2023/08/06 02:49:38;;;;;;;20.20;13.32;;;;;;;;;;5008210;28;20096;-80
2023/08/06 02:52:05;;;;;;;20.15;13.30;;;;;;;;;;5005117;28;20045;-82
2023/08/06 02:54:48;;;;;;;17.65;12.07;;;;;;;;;;5009655;28;20108;-81
2023/08/06 02:57:15;;;;;;;19.40;13.77;;;;;;;;;;5011898;28;20045;-76
2023/08/06 02:59:41;;;;;;;18.58;12.95;;;;;;;;;;5005120;28;20045;-81
2023/08/06 03:02:07;;;;;;;20.85;13.07;;;;;;;;;;4994090;28;20053;-75
2023/08/06 03:04:34;;;;;;;19.05;13.45;;;;;;;;;;5032169;28;20553;-76
2023/08/06 03:07:00;;;;;;;21.63;12.65;;;;;;;;;;5030421;28;20037;-75
2023/08/06 03:09:26;;;;;;;22.67;14.13;;;;;;;;;;5036473;28;20041;-79
2023/08/06 03:11:52;;;;;;;20.98;12.40;;;;;;;;;;5020131;28;20041;-76
2023/08/06 03:14:18;;;;;;;20.08;13.25;;;;;;;;;;5017620;28;20116;-76
2023/08/06 03:16:44;;;;;;;19.70;13.65;;;;;;;;;;5039241;28;20040;-76
2023/08/06 03:19:10;;;;;;;20.45;13.65;;;;;;;;;;5033693;28;20129;-76
2023/08/06 03:21:36;;;;;;;18.10;12.95;;;;;;;;;;5040855;28;20548;-77
2023/08/06 03:24:02;;;;;;;21.58;13.57;;;;;;;;;;5034104;28;20487;-76
2023/08/06 03:26:28;;;;;;;21.70;13.63;;;;;;;;;;5011628;28;20037;-77
2023/08/06 03:28:54;;;;;;;20.63;13.23;;;;;;;;;;5041806;28;20041;-77
2023/08/06 03:31:20;;;;;;;18.48;12.52;;;;;;;;;;5022031;28;20047;-77
2023/08/06 03:33:46;;;;;;;21.95;13.35;;;;;;;;;;5046131;28;20472;-77
2023/08/06 03:36:13;;;;;;;21.10;13.38;;;;;;;;;;5037355;28;20411;-82
2023/08/06 03:38:39;;;;;;;20.23;13.48;;;;;;;;;;5027111;28;20029;-77
2023/08/06 03:41:05;;;;;;;19.05;13.27;;;;;;;;;;5038646;28;20041;-76
2023/08/06 03:43:31;;;;;;;21.70;13.48;;;;;;;;;;5025594;28;20128;-76
2023/08/06 03:45:57;;;;;;;18.95;12.50;;;;;;;;;;5027449;28;20059;-76
2023/08/06 03:48:23;;;;;;;18.60;12.45;;;;;;;;;;5047871;28;20103;-84
2023/08/06 03:50:49;;;;;;;19.05;13.43;;;;;;;;;;5044856;28;20488;-83
2023/08/06 03:53:16;;;;;;;18.20;12.55;;;;;;;;;;5035606;28;20043;-84
2023/08/06 03:55:42;;;;;;;21.20;12.88;;;;;;;;;;5048799;28;20029;-83
2023/08/06 03:58:08;;;;;;;18.90;13.40;;;;;;;;;;5042069;28;20033;-76
2023/08/06 04:00:34;;;;;;;20.98;13.25;;;;;;;;;;5033204;28;20064;-76
2023/08/06 04:03:00;;;;;;;16.02;11.10;;;;;;;;;;5044771;28;20188;-83
2023/08/06 04:05:26;;;;;;;18.20;11.95;;;;;;;;;;5044545;28;20265;-83
2023/08/06 04:07:52;;;;;;;16.77;11.40;;;;;;;;;;5044146;28;20094;-76
2023/08/06 04:10:18;;;;;;;18.00;11.45;;;;;;;;;;5031460;28;20493;-76
2023/08/06 04:12:45;;;;;;;18.50;12.43;;;;;;;;;;5049280;28;20040;-75
2023/08/06 04:15:11;;;;;;;16.98;11.73;;;;;;;;;;5046229;28;20449;-76
2023/08/06 04:17:37;;;;;;;20.58;11.90;;;;;;;;;;5015733;28;20460;-76
2023/08/06 04:20:03;;;;;;;17.35;12.27;;;;;;;;;;5035846;28;20037;-76
2023/08/06 04:22:30;;;;;;;17.10;11.38;;;;;;;;;;5051563;28;20051;-76
2023/08/06 04:24:56;;;;;;;18.02;12.43;;;;;;;;;;5045884;28;20080;-75
2023/08/06 04:27:22;;;;;;;20.02;12.57;;;;;;;;;;5045112;28;20037;-75
2023/08/06 04:29:48;;;;;;;17.95;11.73;;;;;;;;;;5022423;28;20170;-75
2023/08/06 04:32:15;;;;;;;14.23;9.88;;;;;;;;;;5025754;28;20041;-76
2023/08/06 04:34:41;;;;;;;19.83;12.60;;;;;;;;;;5037754;28;20052;-76
2023/08/06 04:37:07;;;;;;;19.77;12.38;;;;;;;;;;5049833;28;20079;-76
2023/08/06 04:39:33;;;;;;;17.13;12.50;;;;;;;;;;5050003;28;20049;-76
2023/08/06 04:42:00;;;;;;;19.83;13.45;;;;;;;;;;5046774;28;20045;-76
2023/08/06 04:44:26;;;;;;;17.02;11.68;;;;;;;;;;5027190;28;20494;-76
2023/08/06 04:46:52;;;;;;;16.35;10.80;;;;;;;;;;5028498;28;20046;-76
2023/08/06 04:49:19;;;;;;;15.93;10.63;;;;;;;;;;5044293;28;20116;-76
2023/08/06 04:51:45;;;;;;;20.02;12.05;;;;;;;;;;5016760;28;20049;-76
2023/08/06 04:54:11;;;;;;;19.75;12.52;;;;;;;;;;5027674;28;20065;-77
2023/08/06 04:56:37;;;;;;;17.95;12.05;;;;;;;;;;5035453;28;20032;-76
2023/08/06 04:59:03;;;;;;;15.13;11.05;;;;;;;;;;5017013;28;20038;-76
2023/08/06 05:01:29;;;;;;;16.15;10.75;;;;;;;;;;5028879;28;20049;-77
2023/08/06 05:03:55;;;;;;;18.17;12.23;;;;;;;;;;5024172;28;20053;-77
2023/08/06 05:06:21;;;;;;;19.35;10.90;;;;;;;;;;5018742;28;20451;-76
2023/08/06 05:08:47;;;;;;;16.20;11.30;;;;;;;;;;5031932;28;20064;-76
2023/08/06 05:11:14;;;;;;;20.05;12.45;;;;;;;;;;5042472;28;20099;-76
2023/08/06 05:13:40;;;;;;;17.13;12.05;;;;;;;;;;5044087;28;20082;-76
2023/08/06 05:16:06;;;;;;;14.90;10.65;;;;;;;;;;5034384;28;20056;-76
2023/08/06 05:18:34;;;;;;;20.38;12.27;;;;;;;;;;5035274;28;20037;-75
2023/08/06 05:21:00;;;;;;;16.95;11.25;;;;;;;;;;5019949;28;20576;-76
2023/08/06 05:23:26;;;;;;;19.65;12.00;;;;;;;;;;5042173;28;20045;-76
2023/08/06 05:25:52;;;;;;;18.60;11.98;;;;;;;;;;5033229;28;20492;-76
2023/08/06 05:28:18;;;;;;;15.55;11.07;;;;;;;;;;5030913;28;20036;-76
2023/08/06 05:30:44;;;;;;;12.77;9.43;;;;;;;;;;5034631;28;20090;-76
2023/08/06 05:33:10;;;;;;;19.70;12.13;;;;;;;;;;5051052;28;20044;-76
2023/08/06 05:35:36;;;;;;;14.73;10.13;;;;;;;;;;5049925;28;20489;-76
2023/08/06 05:38:02;;;;;;;13.80;8.48;;;;;;;;;;5045637;28;20038;-76
2023/08/06 05:40:28;;;;;;;13.82;9.95;;;;;;;;;;5024101;28;20518;-77
2023/08/06 05:42:55;;;;;;;15.90;10.38;;;;;;;;;;5006631;28;20075;-77
2023/08/06 05:45:21;;;;;;;15.82;11.23;;;;;;;;;;5044336;28;20092;-77
2023/08/06 05:47:50;;;;;;;18.25;11.18;;;;;;;;;;5042047;28;20124;-76
2023/08/06 05:50:16;;;;;;;14.45;10.63;;;;;;;;;;5033694;28;20080;-76
2023/08/06 05:52:43;;;;;;;13.95;9.95;;;;;;;;;;5051292;28;20042;-76
2023/08/06 05:55:09;;;;;;;15.68;11.20;;;;;;;;;;5021990;28;20061;-76
2023/08/06 05:57:35;;;;;;;12.23;9.55;;;;;;;;;;5023776;28;20040;-76
2023/08/06 06:00:01;;;;;;;15.05;10.45;;;;;;;;;;5020130;28;20538;-76
2023/08/06 06:02:27;;;;;;;16.67;10.60;;;;;;;;;;5044033;28;20057;-86
2023/08/06 06:04:53;;;;;;;15.32;10.50;;;;;;;;;;5028446;28;20052;-86
2023/08/06 06:07:19;;;;;;;13.80;8.93;;;;;;;;;;5031131;28;20064;-86
2023/08/06 06:09:45;;;;;;;13.82;9.70;;;;;;;;;;5020619;28;20088;-85
2023/08/06 06:12:12;;;;;;;16.13;11.00;;;;;;;;;;5036419;28;20044;-86
2023/08/06 06:14:38;;;;;;;14.23;10.48;;;;;;;;;;5045739;28;20043;-76
2023/08/06 06:17:04;;;;;;;13.52;10.07;;;;;;;;;;5049226;28;20541;-76
2023/08/06 06:19:30;;;;;;;13.73;10.25;;;;;;;;;;5020116;28;20099;-76
2023/08/06 06:21:57;;;;;;;12.63;9.27;;;;;;;;;;5032065;28;20048;-75
2023/08/06 06:24:23;;;;;;;13.15;9.25;;;;;;;;;;5047470;28;20041;-76
2023/08/06 06:26:49;;;;;;;17.10;10.40;;;;;;;;;;5049083;28;20045;-76
2023/08/06 06:29:15;;;;;;;14.65;10.80;;;;;;;;;;5045555;28;20522;-75
2023/08/06 06:31:41;;;;;;;13.98;10.50;;;;;;;;;;5033974;28;20045;-76
2023/08/06 06:34:08;;;;;;;12.40;9.10;;;;;;;;;;5049942;28;20040;-76
2023/08/06 06:36:34;;;;;;;12.05;8.65;;;;;;;;;;5034034;28;20112;-76
2023/08/06 06:39:00;;;;;;;11.98;8.90;;;;;;;;;;5047495;28;20037;-76
2023/08/06 06:41:26;;;;;;;16.25;9.88;;;;;;;;;;5041187;28;20100;-86
2023/08/06 06:43:52;;;;;;;13.65;10.55;;;;;;;;;;5018825;28;20068;-84
2023/08/06 06:46:18;;;;;;;12.38;9.77;;;;;;;;;;5030872;28;20602;-85
2023/08/06 06:48:44;;;;;;;10.35;8.50;;;;;;;;;;5030625;28;20116;-85
2023/08/06 06:51:10;;;;;;;10.07;7.70;;;;;;;;;;5030700;28;20385;-83
2023/08/06 06:53:36;;;;;;;12.60;10.00;;;;;;;;;;5020983;28;20052;-85
2023/08/06 06:56:04;;;;;;;11.43;8.38;;;;;;;;;;5021249;28;20510;-82
2023/08/06 06:58:30;;;;;;;12.57;8.50;;;;;;;;;;5054586;28;20487;-82
2023/08/06 07:00:56;;;;;;;11.82;8.70;;;;;;;;;;5051607;28;20044;-82
2023/08/06 07:03:23;;;;;;;9.85;8.20;;;;;;;;;;5001418;28;20838;-82
2023/08/06 07:05:50;;;;;;;13.23;9.25;;;;;;;;;;5021823;28;20047;-82
2023/08/06 07:08:16;;;;;;;12.95;8.63;;;;;;;;;;5021007;28;20044;-75
2023/08/06 07:10:42;;;;;;;11.57;9.38;;;;;;;;;;5034799;28;20088;-75
2023/08/06 07:13:09;;;;;;;8.60;7.38;;;;;;;;;;5000047;28;20049;-75
2023/08/06 07:15:35;;;;;;;10.40;8.30;;;;;;;;;;5037583;28;20438;-75
2023/08/06 07:18:01;;;;;;;9.52;7.90;;;;;;;;;;5037202;28;20049;-76
2023/08/06 07:20:31;;;;;;;14.85;7.57;;;;;;;;;;5036956;28;20064;-75
2023/08/06 07:22:57;;;;;;;10.35;8.50;;;;;;;;;;5032640;28;20061;-75
2023/08/06 07:25:23;;;;;;;10.57;8.35;;;;;;;;;;5036727;28;20090;-75
2023/08/06 07:27:49;;;;;;;9.98;7.70;;;;;;;;;;5017589;28;20045;-75
2023/08/06 07:30:16;;;;;;;9.88;7.88;;;;;;;;;;5006798;28;20203;-75
2023/08/06 07:32:42;;;;;;;10.95;8.60;;;;;;;;;;5030561;28;20407;-75
2023/08/06 07:35:12;;;;;;;9.05;6.80;;;;;;;;;;5034884;28;20482;-75
2023/08/06 07:37:38;;;;;;;11.05;8.30;;;;;;;;;;5007586;28;20480;-75
2023/08/06 07:40:05;;;;;;;11.95;8.38;;;;;;;;;;5030232;28;20391;-76
2023/08/06 07:42:31;;;;;;;9.07;7.45;;;;;;;;;;5028988;28;20124;-75
2023/08/06 07:44:58;;;;;;;9.43;7.93;;;;;;;;;;5036652;28;20123;-75
2023/08/06 07:47:24;;;;;;;9.63;8.25;;;;;;;;;;5036390;28;20045;-76
2023/08/06 07:49:51;;;;;;;10.45;7.25;;;;;;;;;;5002626;28;20076;-75
2023/08/06 07:52:17;;;;;;;9.18;8.20;;;;;;;;;;5032559;28;20091;-75
2023/08/06 07:54:43;;;;;;;10.93;7.95;;;;;;;;;;5014166;28;20041;-75
2023/08/06 07:57:10;;;;;;;9.85;8.15;;;;;;;;;;5032677;28;20045;-75
2023/08/06 07:59:36;;;;;;;11.35;8.57;;;;;;;;;;5036498;28;20084;-75
2023/08/06 08:02:02;;;;;;;9.95;7.30;;;;;;;;;;5037864;28;20151;-75
2023/08/06 08:04:28;;;;;;;10.65;8.07;;;;;;;;;;5046157;28;20495;-75
2023/08/06 08:06:54;;;;;;;8.02;7.22;;;;;;;;;;5033034;28;20045;-76
2023/08/06 08:09:20;;;;;;;9.55;8.52;;;;;;;;;;5027531;28;20073;-75
2023/08/06 08:11:47;;;;;;;8.45;7.18;;;;;;;;;;5044054;28;20123;-75
2023/08/06 08:14:13;;;;;;;13.15;8.38;;;;;;;;;;5024066;28;20033;-76
2023/08/06 08:16:39;;;;;;;10.02;7.65;;;;;;;;;;5048081;28;20128;-75
2023/08/06 08:19:05;;;;;;;7.43;6.63;;;;;;;;;;5049637;28;20033;-75
2023/08/06 08:21:32;;;;;;;11.02;7.10;;;;;;;;;;5035895;28;20044;-75
2023/08/06 08:23:59;;;;;;;9.75;8.75;;;;;;;;;;5048279;28;20040;-75
2023/08/06 08:26:27;;;;;;;10.75;8.75;;;;;;;;;;5050909;28;20387;-75
2023/08/06 08:28:53;;;;;;;9.00;7.28;;;;;;;;;;5033897;28;20029;-76
2023/08/06 08:31:19;;;;;;;10.13;8.02;;;;;;;;;;5052600;28;20402;-75
2023/08/06 08:33:45;;;;;;;10.25;8.07;;;;;;;;;;5051899;28;20037;-76
2023/08/06 08:36:11;;;;;;;10.48;9.23;;;;;;;;;;5031935;28;20069;-76
2023/08/06 08:38:37;;;;;;;10.60;9.13;;;;;;;;;;5032997;28;20052;-76
2023/08/06 08:41:03;;;;;;;9.73;8.73;;;;;;;;;;5044268;28;20055;-76
2023/08/06 08:43:30;;;;;;;10.57;8.60;;;;;;;;;;5032290;28;20037;-75
2023/08/06 08:46:00;;;;;;;11.63;9.30;;;;;;;;;;5046714;28;20041;-77
2023/08/06 08:48:29;;;;;;;9.70;8.30;;;;;;;;;;5032058;28;20051;-75
2023/08/06 08:50:56;;;;;;;10.80;9.40;;;;;;;;;;5041792;28;20069;-76
2023/08/06 08:53:22;;;;;;;11.05;8.63;;;;;;;;;;5044970;28;20052;-75
2023/08/06 08:55:50;;;;;;;11.02;8.73;;;;;;;;;;5044642;28;20239;-76
2023/08/06 08:58:16;;;;;;;10.23;8.68;;;;;;;;;;5050195;28;20064;-76
2023/08/06 09:00:43;;;;;;;11.07;9.18;;;;;;;;;;5053080;28;20487;-76
2023/08/06 09:03:09;;;;;;;9.60;8.50;;;;;;;;;;5052423;28;20515;-78
2023/08/06 09:05:35;;;;;;;9.73;7.63;;;;;;;;;;5031951;28;20045;-78
2023/08/06 09:08:05;;;;;;;8.18;7.00;;;;;;;;;;5010754;28;20044;-80
2023/08/06 09:10:31;;;;;;;10.65;7.93;;;;;;;;;;5031377;28;20030;-78
2023/08/06 09:12:59;;;;;;;9.88;7.85;;;;;;;;;;5045088;28;20053;-79
2023/08/06 09:15:25;;;;;;;10.38;8.95;;;;;;;;;;5044088;28;20037;-76
2023/08/06 09:17:52;;;;;;;11.63;8.10;;;;;;;;;;5042723;28;20545;-75
2023/08/06 09:20:18;;;;;;;8.55;7.55;;;;;;;;;;5049133;28;20037;-76
2023/08/06 09:22:45;;;;;;;9.27;7.78;;;;;;;;;;5031562;28;20037;-76
2023/08/06 09:25:13;;;;;;;9.57;7.78;;;;;;;;;;5048284;28;20040;-76
2023/08/06 09:27:39;;;;;;;7.45;6.55;;;;;;;;;;5050985;28;20045;-76
2023/08/06 09:30:06;;;;;;;10.05;7.50;;;;;;;;;;5034725;28;20623;-76
2023/08/06 09:32:52;;;;;;;8.32;6.55;;;;;;;;;;5048546;28;20041;-76
2023/08/06 09:35:19;;;;;;;8.00;6.55;;;;;;;;;;5040026;28;20039;-76
2023/08/06 09:37:45;;;;;;;8.68;6.85;;;;;;;;;;5030524;28;20030;-76
2023/08/06 09:40:31;;;;;;;7.78;6.60;;;;;;;;;;5038141;28;20048;-78
2023/08/06 09:42:57;;;;;;;;;;;;;;;;;;5033903;28;20045;-76
2023/08/06 09:45:23;;;;;;;;;;;;;;;;;;5022043;28;19917;-76
2023/08/06 09:47:49;;;;;;;;;;;;;;;;;;5047979;28;19924;-77
2023/08/06 09:50:15;;;;;;;;;;;;;;;;;;5051074;28;19924;-76
2023/08/06 09:52:42;;;;;;;6.53;5.85;;;;;;;;;;5033701;28;20351;-77
2023/08/06 09:55:09;;;;;;;7.93;5.90;;;;;;;;;;5026967;28;20048;-74
2023/08/06 09:57:45;;;;;;;6.57;5.88;;;;;;;;;;5045812;28;20080;-75
2023/08/06 10:00:13;;;;;;;9.55;5.70;;;;;;;;;;5049728;28;20513;-75
2023/08/06 10:02:40;;;;;;;6.45;5.50;;;;;;;;;;5038195;28;20049;-76
2023/08/06 10:05:07;;;;;;;6.07;5.30;;;;;;;;;;5034952;28;20045;-87
2023/08/06 10:07:33;;;;;;;8.60;5.28;;;;;;;;;;5042455;28;20041;-80
2023/08/06 10:10:00;;;;;;;7.40;5.18;;;;;;;;;;5034895;28;20041;-78
2023/08/06 10:12:26;;;;;;;6.68;4.82;;;;;;;;;;4998824;28;20049;-80
2023/08/06 10:14:57;;;;;;;6.90;5.65;;;;;;;;;;5045911;28;20037;-86
2023/08/06 10:17:24;;;;;;;5.90;4.60;;;;;;;;;;5045077;28;20037;-80
2023/08/06 10:19:51;;;;;;;5.90;4.10;;;;;;;;;;5043363;28;20045;-80
2023/08/06 10:22:18;;;;;;;5.05;4.30;;;;;;;;;;5050207;28;20127;-81
2023/08/06 10:24:47;;;;;;;6.25;4.05;;;;;;;;;;5042676;28;20518;-81
2023/08/06 10:27:13;;;;;;;4.55;4.05;;;;;;;;;;5045827;28;20036;-78
2023/08/06 10:29:40;;;;;;;5.75;3.90;;;;;;;;;;5048889;28;20029;-77
2023/08/06 10:32:06;;;;;;;7.53;4.50;;;;;;;;;;5033895;28;20538;-79
2023/08/06 10:34:50;;;;;;;4.53;3.40;;;;;;;;;;5029191;28;20076;-76
2023/08/06 10:37:17;;;;;;;5.60;3.75;;;;;;;;;;5041299;28;20049;-76
2023/08/06 10:39:52;;;;;;;5.13;3.78;;;;;;;;;;5030478;28;20487;-76
2023/08/06 10:42:28;;;;;;;6.47;3.20;;;;;;;;;;5047439;28;20045;-79
2023/08/06 10:45:15;;;;;;;6.45;2.70;;;;;;;;;;5044131;28;20091;-76
2023/08/06 10:47:41;;;;;;;4.97;3.30;;;;;;;;;;5031225;28;20124;-78
2023/08/06 10:50:17;;;;;;;5.18;3.20;;;;;;;;;;5017587;28;20483;-75
2023/08/06 10:52:47;;;;;;;3.47;2.58;;;;;;;;;;5038167;28;20084;-76
2023/08/06 10:55:13;;;;;;;4.78;2.80;;;;;;;;;;5038793;28;20052;-78
2023/08/06 10:57:40;;;;;;;3.35;2.70;;;;;;;;;;5037130;28;20087;-76
2023/08/06 11:00:08;;;;;;;4.55;2.72;;;;;;;;;;5031655;28;20102;-74
2023/08/06 11:02:45;;;;;;;3.78;2.80;;;;;;;;;;5038320;28;20049;-75
2023/08/06 11:05:14;;;;;;;3.33;2.78;;;;;;;;;;5032721;28;20551;-78
2023/08/06 11:07:41;;;;;;;8.60;3.17;;;;;;;;;;5038289;28;20049;-78
2023/08/06 11:10:08;;;;;;;5.68;2.83;;;;;;;;;;5026372;28;20045;-81
2023/08/06 11:12:34;;;;;;;4.70;2.47;;;;;;;;;;5034692;28;20187;-77
2023/08/06 11:15:01;;;;;;;4.40;2.42;;;;;;;;;;5044494;28;20044;-81
2023/08/06 11:17:31;;;;;;;5.05;2.30;;;;;;;;;;5017289;28;20407;-81
2023/08/06 11:20:00;;;;;;;3.25;2.28;;;;;;;;;;5044336;28;20079;-76
2023/08/06 11:22:26;;;;;;;3.58;2.40;;;;;;;;;;5025600;28;20041;-74
2023/08/06 11:24:53;;;;;;;4.68;2.42;;;;;;;;;;5029947;28;20045;-75
2023/08/06 11:27:19;;;;;;;4.63;2.40;;;;;;;;;;5032949;28;20040;-73
2023/08/06 11:29:46;;;;;;;3.38;2.60;;;;;;;;;;5040312;28;20037;-74
2023/08/06 11:32:12;;;;;;;3.50;2.50;;;;;;;;;;5041233;28;20453;-79
2023/08/06 11:34:39;;;;;;;3.33;2.35;;;;;;;;;;5041760;28;20056;-77
2023/08/06 11:37:06;;;;;;;3.75;2.50;;;;;;;;;;5029751;28;20513;-74
2023/08/06 11:39:36;;;;;;;3.58;2.60;;;;;;;;;;5036163;28;20487;-73
2023/08/06 11:42:09;;;;;;;4.32;2.40;;;;;;;;;;5037412;28;20043;-77
2023/08/06 11:44:38;;;;;;;4.20;2.50;;;;;;;;;;5035141;28;20115;-79
2023/08/06 11:47:05;;;;;;;5.03;2.85;;;;;;;;;;5023160;28;20041;-76
2023/08/06 11:49:45;;;;;;;6.00;2.70;;;;;;;;;;5046930;28;20051;-78
2023/08/06 11:52:16;;;;;;;4.55;2.40;;;;;;;;;;5045718;28;20045;-77
2023/08/06 11:54:42;;;;;;;4.28;2.40;;;;;;;;;;5042849;28;20041;-77
2023/08/06 11:57:09;;;;;;;3.85;2.30;;;;;;;;;;5048255;28;20124;-76
2023/08/06 11:59:35;;;;;;;3.05;2.17;;;;;;;;;;5048003;28;20437;-83
2023/08/06 12:02:07;;;;;;;3.60;2.53;;;;;;;;;;5043986;28;20089;-83
2023/08/06 12:04:52;;;;;;;3.15;2.08;;;;;;;;;;5048804;28;20498;-84
2023/08/06 12:07:18;;;;;;;5.03;2.28;;;;;;;;;;5040983;28;20111;-85
2023/08/06 12:09:44;;;;;;;3.88;2.05;;;;;;;;;;5047140;28;20040;-83
2023/08/06 12:12:10;;;;;;;3.03;2.17;;;;;;;;;;5051423;28;20048;-84
2023/08/06 12:14:37;;;;;;;3.30;2.15;;;;;;;;;;5048926;28;20123;-84
2023/08/06 12:17:03;;;;;;;5.22;2.17;;;;;;;;;;5041904;28;20103;-76
2023/08/06 12:19:30;;;;;;;3.83;2.22;;;;;;;;;;5024057;28;20037;-84
2023/08/06 12:21:56;;;;;;;3.10;2.10;;;;;;;;;;5047954;28;20170;-76
2023/08/06 12:24:22;;;;;;;3.50;2.13;;;;;;;;;;5030609;28;20515;-76
2023/08/06 12:26:48;;;;;;;4.38;2.20;;;;;;;;;;5024656;28;20033;-76
2023/08/06 12:29:14;;;;;;;3.20;2.30;;;;;;;;;;5032644;28;20395;-75
2023/08/06 12:31:40;;;;;;;5.05;2.63;;;;;;;;;;5032288;28;20064;-78
2023/08/06 12:34:06;;;;;;;3.88;2.70;;;;;;;;;;5047765;28;20049;-78
2023/08/06 12:36:32;;;;;;;5.10;2.95;;;;;;;;;;5043664;28;20072;-77
2023/08/06 12:38:58;;;;;;;4.78;3.00;;;;;;;;;;5038578;28;20358;-78
2023/08/06 12:41:24;;;;;;;5.28;2.83;;;;;;;;;;5032251;28;20103;-78
2023/08/06 12:46:26;;;;;;;4.32;2.80;;;;;;;;;;4575040;22;20709;-72
2023/08/06 12:48:52;;;;;;;4.15;2.90;;;;;;;;;;5046423;28;20048;-72
2023/08/06 12:57:18;;;;;;;5.22;2.83;;;;;;;;;;5045596;22;20107;-72
2023/08/06 12:59:44;;;;;;;4.95;3.40;;;;;;;;;;5033673;28;20044;-72
2023/08/06 13:02:10;;;;;;;6.70;3.50;;;;;;;;;;5041872;28;20045;-72
2023/08/06 13:04:36;;;;;;;5.45;3.50;;;;;;;;;;5037973;28;20090;-73
2023/08/06 13:07:02;;;;;;;6.80;4.00;;;;;;;;;;5084611;23;20071;-75
2023/08/06 13:09:32;;;;;;;5.82;4.10;;;;;;;;;;5054381;22;20054;-74
2023/08/06 13:11:59;;;;;;;7.43;4.47;;;;;;;;;;5030434;22;20041;-75
2023/08/06 13:14:26;;;;;;;4.90;3.75;;;;;;;;;;5002938;28;20053;-75
2023/08/06 13:16:52;;;;;;;5.03;3.78;;;;;;;;;;5028383;28;20056;-74
2023/08/06 13:19:18;;;;;;;4.72;3.97;;;;;;;;;;5020331;28;20390;-75
2023/08/06 13:21:48;;;;;;;5.75;4.90;;;;;;;;;;5026294;28;20045;-75
2023/08/06 13:24:14;;;;;;;6.57;5.05;;;;;;;;;;5017910;28;20041;-75
2023/08/06 13:26:40;;;;;;;7.93;5.47;;;;;;;;;;5025827;28;20037;-75
2023/08/06 13:29:10;;;;;;;8.02;5.75;;;;;;;;;;5030800;28;20064;-72
2023/08/06 13:31:37;;;;;;;9.73;6.53;;;;;;;;;;5050628;28;20083;-79
2023/08/06 13:34:03;;;;;;;9.23;6.97;;;;;;;;;;5052864;28;20037;-77
2023/08/06 13:36:30;;;;;;;9.02;6.95;;;;;;;;;;5029016;28;20394;-76
2023/08/06 13:38:56;;;;;;;8.25;6.00;;;;;;;;;;5041524;28;20045;-77
2023/08/06 13:41:22;;;;;;;8.30;6.05;;;;;;;;;;5038849;28;20037;-76
2023/08/06 13:43:48;;;;;;;7.18;5.45;;;;;;;;;;5009864;28;20189;-76
2023/08/06 13:46:16;;;;;;;7.80;5.43;;;;;;;;;;5051988;28;20548;-77
2023/08/06 13:48:43;;;;;;;7.70;5.43;;;;;;;;;;5031382;28;20470;-77
2023/08/06 13:51:10;;;;;;;7.47;5.07;;;;;;;;;;5029634;28;20048;-77
2023/08/06 13:53:36;;;;;;;8.77;5.40;;;;;;;;;;5029871;28;20092;-76
2023/08/06 13:56:02;;;;;;;7.70;4.80;;;;;;;;;;5028479;28;20048;-78
2023/08/06 13:58:29;;;;;;;10.70;5.30;;;;;;;;;;5031515;28;20033;-79
2023/08/06 14:00:56;;;;;;;7.88;5.72;;;;;;;;;;5013505;28;20049;-77
2023/08/06 14:03:22;;;;;;;7.35;5.70;;;;;;;;;;5031976;28;20110;-78
2023/08/06 14:05:48;;;;;;;10.15;6.63;;;;;;;;;;5024244;28;20478;-78
2023/08/06 14:08:15;;;;;;;8.55;5.70;;;;;;;;;;5033166;28;20124;-78
2023/08/06 14:10:41;;;;;;;10.82;5.65;;;;;;;;;;5034624;28;20045;-78
2023/08/06 14:13:07;;;;;;;6.63;5.53;;;;;;;;;;5018694;28;20577;-81
2023/08/06 14:15:35;;;;;;;7.53;4.68;;;;;;;;;;5029305;28;20049;-83
2023/08/06 14:18:02;;;;;;;6.68;4.20;;;;;;;;;;5016304;28;20037;-82
2023/08/06 14:20:28;;;;;;;5.20;3.92;;;;;;;;;;5030762;28;20037;-83
2023/08/06 14:22:54;;;;;;;4.32;3.80;;;;;;;;;;5044718;28;20116;-85
2023/08/06 14:25:20;;;;;;;6.35;4.90;;;;;;;;;;5022827;28;20040;-87
2023/08/06 14:27:46;;;;;;;5.93;4.30;;;;;;;;;;5039354;28;20508;-87
2023/08/06 14:30:12;;;;;;;10.20;4.10;;;;;;;;;;5021735;28;20511;-86
2023/08/06 14:32:39;;;;;;;5.10;3.50;;;;;;;;;;5033131;28;20525;-86
2023/08/06 14:35:05;;;;;;;6.40;3.50;;;;;;;;;;5027084;28;20037;-87
2023/08/06 14:37:32;;;;;;;4.53;2.88;;;;;;;;;;5027529;28;20540;-91